createdAt,value
2022-08-31T00:00:09.315Z,101397.06
2022-08-31T00:02:54.530Z,101399.91
2022-08-31T00:05:21.762Z,101402.34
2022-08-31T00:07:48.271Z,101391.81
2022-08-31T00:10:15.561Z,101393.84
2022-08-31T00:12:43.486Z,101403.56
2022-08-31T00:15:12.716Z,101404.38
2022-08-31T00:17:40.257Z,101401.56
2022-08-31T00:20:08.935Z,101411.66
2022-08-31T00:22:55.439Z,101398.72
2022-08-31T00:25:24.108Z,101402.78
2022-08-31T00:27:50.901Z,101404.38
2022-08-31T00:30:17.845Z,101390.59
2022-08-31T00:32:44.360Z,101399.88
2022-08-31T00:35:12.251Z,101393.03
2022-08-31T00:37:38.788Z,101397.88
2022-08-31T00:40:06.590Z,101397.50
2022-08-31T00:42:34.632Z,101389.38
2022-08-31T00:45:01.465Z,101391.81
2022-08-31T00:47:27.944Z,101387.75
2022-08-31T00:49:54.562Z,101393.84
2022-08-31T00:52:25.032Z,101398.28
2022-08-31T00:54:57.136Z,101401.94
2022-08-31T00:57:34.097Z,101403.16
2022-08-31T01:00:05.896Z,101397.06
2022-08-31T01:02:32.758Z,101409.63
2022-08-31T01:04:59.448Z,101403.56
2022-08-31T01:07:27.252Z,101403.13
2022-08-31T01:09:56.270Z,101408.41
2022-08-31T01:12:23.744Z,101403.97
2022-08-31T01:14:50.413Z,101409.19
2022-08-31T01:17:17.680Z,101410.44
2022-08-31T01:19:54.878Z,101408.00
2022-08-31T01:22:38.990Z,101410.00
2022-08-31T01:25:06.988Z,101408.78
2022-08-31T01:27:36.026Z,101403.09
2022-08-31T01:30:06.688Z,101407.97
2022-08-31T01:32:33.309Z,101410.41
2022-08-31T01:34:59.860Z,101404.34
2022-08-31T01:37:29.500Z,101407.19
2022-08-31T01:39:57.053Z,101419.69
2022-08-31T01:42:23.613Z,101410.00
2022-08-31T01:45:00.656Z,101415.25
2022-08-31T01:47:27.149Z,101406.34
2022-08-31T01:49:56.105Z,101412.81
2022-08-31T01:52:25.237Z,101412.41
2022-08-31T01:54:54.926Z,101418.06
2022-08-31T01:57:24.470Z,101422.91
2022-08-31T02:00:03.578Z,101413.63
2022-08-31T02:02:30.207Z,101420.09
2022-08-31T02:04:56.825Z,101419.69
2022-08-31T02:07:23.291Z,101424.53
2022-08-31T02:09:49.832Z,101424.94
2022-08-31T02:12:17.610Z,101428.59
2022-08-31T02:14:44.184Z,101424.13
2022-08-31T02:17:10.764Z,101416.03
2022-08-31T02:19:37.372Z,101423.28
2022-08-31T02:22:04.042Z,101423.69
2022-08-31T02:24:30.720Z,101428.53
2022-08-31T02:26:57.645Z,101421.25
2022-08-31T02:29:24.284Z,101421.25
2022-08-31T02:31:51.847Z,101421.25
2022-08-31T02:34:18.716Z,101416.00
2022-08-31T02:36:45.424Z,101416.81
2022-08-31T02:39:13.664Z,101424.09
2022-08-31T02:41:42.324Z,101421.66
2022-08-31T02:44:09.158Z,101422.84
2022-08-31T02:46:35.968Z,101419.22
2022-08-31T02:49:02.659Z,101419.19
2022-08-31T02:51:29.412Z,101418.00
2022-08-31T02:53:56.145Z,101415.16
2022-08-31T02:56:23.817Z,101417.94
2022-08-31T02:58:54.942Z,101418.78
2022-08-31T03:01:23.564Z,101423.59
2022-08-31T03:03:50.780Z,101416.31
2022-08-31T03:06:19.033Z,101419.94
2022-08-31T03:08:46.614Z,101421.13
2022-08-31T03:11:13.475Z,101409.00
2022-08-31T03:13:41.357Z,101418.69
2022-08-31T03:16:08.758Z,101406.53
2022-08-31T03:18:35.407Z,101411.34
2022-08-31T03:21:02.477Z,101415.78
2022-08-31T03:23:29.064Z,101401.63
2022-08-31T03:25:55.834Z,101411.72
2022-08-31T03:28:22.465Z,101412.91
2022-08-31T03:30:49.079Z,101408.06
2022-08-31T03:33:15.719Z,101413.28
2022-08-31T03:35:44.164Z,101403.94
2022-08-31T03:38:12.698Z,101411.59
2022-08-31T03:40:41.290Z,101402.31
2022-08-31T03:43:11.475Z,101406.34
2022-08-31T03:45:40.077Z,101396.25
2022-08-31T03:48:11.988Z,101408.75
2022-08-31T03:50:39.894Z,101406.28
2022-08-31T03:53:07.846Z,101403.44
2022-08-31T03:55:38.250Z,101409.88
2022-08-31T03:58:04.924Z,101409.47
2022-08-31T04:00:33.455Z,101415.91
2022-08-31T04:03:01.554Z,101410.66
2022-08-31T04:05:29.617Z,101425.19
2022-08-31T04:07:56.364Z,101419.91
2022-08-31T04:10:23.091Z,101415.47
2022-08-31T04:12:50.577Z,101422.31
2022-08-31T04:15:17.992Z,101423.53
2022-08-31T04:17:47.694Z,101423.91
2022-08-31T04:20:15.028Z,101427.53
2022-08-31T04:22:41.530Z,101428.38
2022-08-31T04:25:10.468Z,101426.34
2022-08-31T04:27:40.379Z,101430.38
2022-08-31T04:30:08.640Z,101423.91
2022-08-31T04:32:35.738Z,101427.94
2022-08-31T04:35:03.593Z,101429.16
2022-08-31T04:37:30.886Z,101429.97
2022-08-31T04:39:59.218Z,101433.59
2022-08-31T04:42:26.131Z,101434.41
2022-08-31T04:44:52.680Z,101440.88
2022-08-31T04:47:20.421Z,101443.69
2022-08-31T04:49:47.806Z,101447.31
2022-08-31T04:52:14.432Z,101440.50
2022-08-31T04:54:41.069Z,101446.16
2022-08-31T04:57:07.590Z,101441.66
2022-08-31T04:59:34.140Z,101452.16
2022-08-31T05:02:00.792Z,101460.25
2022-08-31T05:04:29.099Z,101463.47
2022-08-31T05:06:56.147Z,101462.66
2022-08-31T05:09:23.703Z,101460.19
2022-08-31T05:11:52.326Z,101461.81
2022-08-31T05:14:18.809Z,101464.28
2022-08-31T05:16:45.927Z,101455.81
2022-08-31T05:19:12.855Z,101456.63
2022-08-31T05:21:41.473Z,101456.19
2022-08-31T05:24:18.386Z,101463.09
2022-08-31T05:26:48.489Z,101461.09
2022-08-31T05:29:16.872Z,101456.19
2022-08-31T05:31:47.160Z,101464.28
2022-08-31T05:34:17.828Z,101465.03
2022-08-31T05:36:48.983Z,101460.16
2022-08-31T05:39:15.480Z,101467.03
2022-08-31T05:41:44.404Z,101466.19
2022-08-31T05:44:11.712Z,101454.88
2022-08-31T05:46:39.003Z,101459.72
2022-08-31T05:49:07.894Z,101462.53
2022-08-31T05:51:38.588Z,101457.69
2022-08-31T05:54:06.196Z,101462.97
2022-08-31T05:56:33.038Z,101458.53
2022-08-31T05:58:59.586Z,101458.91
2022-08-31T06:01:30.497Z,101460.94
2022-08-31T06:03:57.856Z,101467.81
2022-08-31T06:06:24.845Z,101461.38
2022-08-31T06:08:51.999Z,101466.63
2022-08-31T06:11:20.875Z,101463.38
2022-08-31T06:13:50.443Z,101459.34
2022-08-31T06:16:18.325Z,101459.00
2022-08-31T06:18:51.983Z,101455.34
2022-08-31T06:21:24.960Z,101459.78
2022-08-31T06:23:53.640Z,101460.63
2022-08-31T06:26:22.581Z,101462.66
2022-08-31T06:28:51.166Z,101465.53
2022-08-31T06:31:25.070Z,101472.03
2022-08-31T06:33:52.217Z,101471.25
2022-08-31T06:36:21.234Z,101476.94
2022-08-31T06:38:48.072Z,101475.38
2022-08-31T06:41:20.276Z,101477.41
2022-08-31T06:43:47.719Z,101476.63
2022-08-31T06:46:15.395Z,101470.25
2022-08-31T06:48:42.278Z,101475.53
2022-08-31T06:51:10.042Z,101481.22
2022-08-31T06:53:40.349Z,101482.84
2022-08-31T06:56:16.434Z,101484.06
2022-08-31T06:58:47.321Z,101475.63
2022-08-31T07:01:34.793Z,101474.41
2022-08-31T07:04:07.554Z,101481.28
2022-08-31T07:06:40.983Z,101482.94
2022-08-31T07:09:11.957Z,101484.97
2022-08-31T07:11:44.617Z,101486.56
2022-08-31T07:14:14.098Z,101487.00
2022-08-31T07:16:41.450Z,101495.53
2022-08-31T07:19:08.294Z,101498.75
2022-08-31T07:21:59.323Z,101499.16
2022-08-31T07:24:33.231Z,101500.81
2022-08-31T07:27:09.903Z,101506.94
2022-08-31T07:29:40.600Z,101505.34
2022-08-31T07:32:09.218Z,101510.28
2022-08-31T07:34:36.721Z,101513.56
2022-08-31T07:37:23.223Z,101513.56
2022-08-31T07:40:09.221Z,101509.56
2022-08-31T07:42:39.536Z,101515.25
2022-08-31T07:45:12.618Z,101518.53
2022-08-31T07:47:46.030Z,101513.72
2022-08-31T07:50:14.037Z,101518.56
2022-08-31T07:52:48.439Z,101519.38
2022-08-31T07:55:17.785Z,101516.88
2022-08-31T07:57:44.846Z,101510.22
2022-08-31T08:00:36.098Z,101525.50
2022-08-31T08:03:07.268Z,101519.63
2022-08-31T08:05:38.788Z,101515.81
2022-08-31T08:08:10.525Z,101520.47
2022-08-31T08:10:52.078Z,101525.63
2022-08-31T08:13:20.259Z,101529.09
2022-08-31T08:15:48.553Z,101525.78
2022-08-31T08:18:15.195Z,101523.31
2022-08-31T08:20:41.704Z,101527.38
2022-08-31T08:23:14.660Z,101529.06
2022-08-31T08:25:43.312Z,101532.69
2022-08-31T08:28:35.986Z,101527.00
2022-08-31T08:31:01.477Z,101534.31
2022-08-31T08:33:29.615Z,101540.88
2022-08-31T08:35:58.247Z,101533.16
2022-08-31T08:38:32.678Z,101534.00
2022-08-31T08:41:06.870Z,101528.75
2022-08-31T08:43:40.455Z,101531.22
2022-08-31T08:46:33.458Z,101536.06
2022-08-31T08:49:13.333Z,101532.47
2022-08-31T08:51:39.919Z,101532.47
2022-08-31T08:54:20.936Z,101533.31
2022-08-31T08:56:49.227Z,101532.47
2022-08-31T08:59:19.918Z,101529.19
2022-08-31T09:01:49.708Z,101534.06
2022-08-31T09:04:37.133Z,101532.34
2022-08-31T09:07:34.027Z,101537.97
2022-08-31T09:10:18.808Z,101538.28
2022-08-31T09:13:09.972Z,101531.31
2022-08-31T09:16:15.242Z,101534.56
2022-08-31T09:19:00.757Z,101537.78
2022-08-31T09:21:34.604Z,101537.31
2022-08-31T09:24:03.004Z,101538.06
2022-08-31T09:26:47.137Z,101533.16
2022-08-31T09:29:32.110Z,101536.38
2022-08-31T09:32:07.778Z,101534.28
2022-08-31T09:34:40.102Z,101531.75
2022-08-31T09:37:17.940Z,101532.56
2022-08-31T09:39:47.754Z,101532.03
2022-08-31T09:42:31.054Z,101529.09
2022-08-31T09:45:01.929Z,101518.84
2022-08-31T09:47:58.323Z,101525.72
2022-08-31T09:50:34.767Z,101520.78
2022-08-31T09:53:39.710Z,101513.88
2022-08-31T09:56:15.464Z,101515.84
2022-08-31T09:58:48.007Z,101517.81
2022-08-31T10:01:38.634Z,101516.97
2022-08-31T10:04:28.808Z,101521.81
2022-08-31T10:07:07.948Z,101515.53
2022-08-31T10:09:37.643Z,101518.34
2022-08-31T10:12:09.098Z,101510.19
2022-08-31T10:14:51.545Z,101507.69
2022-08-31T10:17:31.977Z,101512.94
2022-08-31T10:20:12.156Z,101521.00
2022-08-31T10:22:43.846Z,101514.41
2022-08-31T10:25:23.125Z,101514.72
2022-08-31T10:27:57.714Z,101517.44
2022-08-31T10:30:58.327Z,101517.38
2022-08-31T10:33:51.768Z,101522.16
2022-08-31T10:36:18.447Z,101511.88
2022-08-31T10:38:49.560Z,101513.03
2022-08-31T10:41:16.033Z,101517.78
2022-08-31T10:44:00.180Z,101514.53
2022-08-31T10:46:29.093Z,101511.56
2022-08-31T10:48:57.642Z,101524.97
2022-08-31T10:51:32.759Z,101517.94
2022-08-31T10:54:06.768Z,101519.56
2022-08-31T10:56:41.514Z,101517.56
2022-08-31T10:59:46.079Z,101520.13
2022-08-31T11:03:10.545Z,101520.59
2022-08-31T11:05:40.466Z,101512.84
2022-08-31T11:09:04.232Z,101519.53
2022-08-31T11:11:42.303Z,101510.63
2022-08-31T11:14:14.738Z,101510.63
2022-08-31T11:16:50.157Z,101509.88
2022-08-31T11:20:03.708Z,101513.97
2022-08-31T11:22:48.440Z,101508.19
2022-08-31T11:25:47.477Z,101511.41
2022-08-31T11:28:36.678Z,101510.06
2022-08-31T11:31:14.735Z,101502.56
2022-08-31T11:34:14.101Z,101502.38
2022-08-31T11:36:57.674Z,101512.31
2022-08-31T11:39:37.743Z,101508.38
2022-08-31T11:42:33.209Z,101501.66
2022-08-31T11:45:07.091Z,101494.91
2022-08-31T11:47:38.852Z,101490.22
2022-08-31T11:50:31.556Z,101497.41
2022-08-31T11:53:00.851Z,101502.81
2022-08-31T11:55:45.813Z,101496.13
2022-08-31T11:58:26.474Z,101487.00
2022-08-31T12:01:02.829Z,101491.13
2022-08-31T12:03:43.133Z,101485.06
2022-08-31T12:06:25.837Z,101490.41
2022-08-31T12:08:58.645Z,101483.53
2022-08-31T12:11:47.538Z,101487.78
2022-08-31T12:14:39.362Z,101478.56
2022-08-31T12:17:21.722Z,101486.06
2022-08-31T12:20:16.237Z,101474.84
2022-08-31T12:23:37.844Z,101477.53
2022-08-31T12:26:34.658Z,101476.59
2022-08-31T12:29:21.047Z,101476.28
2022-08-31T12:32:26.786Z,101480.16
2022-08-31T12:34:56.366Z,101470.88
2022-08-31T12:37:32.032Z,101470.97
2022-08-31T12:40:45.923Z,101470.56
2022-08-31T12:43:24.094Z,101465.25
2022-08-31T12:46:28.135Z,101469.72
2022-08-31T12:49:07.636Z,101480.69
2022-08-31T12:51:48.662Z,101469.25
2022-08-31T12:54:15.593Z,101465.47
2022-08-31T12:57:20.950Z,101466.28
2022-08-31T13:00:17.775Z,101456.63
2022-08-31T13:02:48.096Z,101463.34
2022-08-31T13:05:17.547Z,101448.44
2022-08-31T13:07:44.113Z,101442.97
2022-08-31T13:10:14.015Z,101452.66
2022-08-31T13:12:48.984Z,101448.75
2022-08-31T13:15:39.116Z,101441.06
2022-08-31T13:18:10.926Z,101439.56
2022-08-31T13:20:44.058Z,101438.16
2022-08-31T13:23:23.136Z,101445.41
2022-08-31T13:26:15.129Z,101436.75
2022-08-31T13:28:41.823Z,101424.41
2022-08-31T13:31:09.647Z,101417.97
2022-08-31T13:33:40.246Z,101421.34
2022-08-31T13:36:33.306Z,101416.97
2022-08-31T13:39:11.776Z,101419.91
2022-08-31T13:42:06.069Z,101413.13
2022-08-31T13:44:39.160Z,101420.91
2022-08-31T13:47:28.849Z,101408.81
2022-08-31T13:50:13.228Z,101401.88
2022-08-31T13:53:09.553Z,101406.69
2022-08-31T13:55:38.489Z,101408.13
2022-08-31T13:58:27.458Z,101406.88
2022-08-31T14:01:21.176Z,101405.97
2022-08-31T14:03:58.831Z,101406.25
2022-08-31T14:06:32.780Z,101402.88
2022-08-31T14:09:05.675Z,101391.78
2022-08-31T14:11:35.570Z,101401.16
2022-08-31T14:14:08.217Z,101397.50
2022-08-31T14:16:39.874Z,101390.56
2022-08-31T14:19:10.982Z,101389.63
2022-08-31T14:21:42.195Z,101404.41
2022-08-31T14:24:12.191Z,101390.09
2022-08-31T14:26:44.064Z,101383.13
2022-08-31T14:29:16.304Z,101384.28
2022-08-31T14:31:44.557Z,101380.09
2022-08-31T14:34:30.103Z,101379.16
2022-08-31T14:37:08.643Z,101369.63
2022-08-31T14:39:41.436Z,101376.38
2022-08-31T14:42:19.423Z,101378.34
2022-08-31T14:45:10.211Z,101381.47
2022-08-31T14:47:43.886Z,101369.56
2022-08-31T14:50:20.066Z,101376.97
2022-08-31T14:52:55.383Z,101363.94
2022-08-31T14:55:24.710Z,101369.75
2022-08-31T14:57:58.028Z,101360.91
2022-08-31T15:00:25.743Z,101367.56
2022-08-31T15:02:53.479Z,101364.78
2022-08-31T15:05:25.313Z,101372.56
2022-08-31T15:07:54.463Z,101370.50
2022-08-31T15:10:25.234Z,101364.31
2022-08-31T15:12:52.645Z,101363.06
2022-08-31T15:15:20.371Z,101363.44
2022-08-31T15:17:51.501Z,101366.28
2022-08-31T15:20:20.059Z,101366.19
2022-08-31T15:22:47.838Z,101360.47
2022-08-31T15:25:15.149Z,101367.44
2022-08-31T15:27:44.731Z,101354.84
2022-08-31T15:30:17.886Z,101354.13
2022-08-31T15:32:46.792Z,101359.41
2022-08-31T15:35:19.762Z,101367.19
2022-08-31T15:37:56.679Z,101367.56
2022-08-31T15:40:25.117Z,101366.28
2022-08-31T15:42:55.498Z,101355.72
2022-08-31T15:45:23.449Z,101362.00
2022-08-31T15:48:08.854Z,101349.50
2022-08-31T15:50:36.052Z,101356.22
2022-08-31T15:53:09.949Z,101351.09
2022-08-31T15:55:40.739Z,101357.72
2022-08-31T15:58:09.398Z,101363.16
2022-08-31T16:00:36.710Z,101348.94
2022-08-31T16:03:03.783Z,101357.19
2022-08-31T16:05:39.141Z,101344.56
2022-08-31T16:08:09.964Z,101349.94
2022-08-31T16:10:38.414Z,101347.53
2022-08-31T16:13:09.368Z,101347.53
2022-08-31T16:15:37.740Z,101341.72
2022-08-31T16:18:05.863Z,101336.91
2022-08-31T16:20:34.498Z,101339.03
2022-08-31T16:23:01.174Z,101348.50
2022-08-31T16:25:47.393Z,101340.00
2022-08-31T16:28:15.848Z,101338.88
2022-08-31T16:30:43.903Z,101334.03
2022-08-31T16:33:12.282Z,101345.56
2022-08-31T16:35:39.042Z,101339.84
2022-08-31T16:38:07.238Z,101347.59
2022-08-31T16:40:34.326Z,101339.56
2022-08-31T16:43:01.668Z,101337.69
2022-08-31T16:45:28.361Z,101337.72
2022-08-31T16:48:15.030Z,101353.72
2022-08-31T16:50:47.655Z,101335.47
2022-08-31T16:53:18.594Z,101345.31
2022-08-31T16:55:47.881Z,101342.09
2022-08-31T16:58:25.069Z,101346.63
2022-08-31T17:01:08.224Z,101349.13
2022-08-31T17:03:34.898Z,101353.25
2022-08-31T17:06:01.479Z,101343.88
2022-08-31T17:08:30.059Z,101356.19
2022-08-31T17:10:57.171Z,101352.97
2022-08-31T17:13:24.036Z,101364.03
2022-08-31T17:15:51.080Z,101359.19
2022-08-31T17:18:17.826Z,101367.84
2022-08-31T17:20:44.438Z,101371.13
2022-08-31T17:23:12.267Z,101369.59
2022-08-31T17:25:38.838Z,101365.13
2022-08-31T17:28:07.651Z,101373.81
2022-08-31T17:30:34.503Z,101379.13
2022-08-31T17:33:01.578Z,101377.13
2022-08-31T17:35:29.536Z,101367.41
2022-08-31T17:37:58.465Z,101375.63
2022-08-31T17:40:25.679Z,101370.00
2022-08-31T17:42:55.000Z,101376.19
2022-08-31T17:45:25.064Z,101372.59
2022-08-31T17:47:53.878Z,101374.34
2022-08-31T17:50:21.322Z,101376.88
2022-08-31T17:52:48.018Z,101375.38
2022-08-31T17:55:14.845Z,101374.25
2022-08-31T17:57:42.377Z,101372.72
2022-08-31T18:00:09.759Z,101370.81
2022-08-31T18:02:37.679Z,101374.16
2022-08-31T18:05:11.733Z,101366.97
2022-08-31T18:07:39.450Z,101379.69
2022-08-31T18:10:06.374Z,101378.56
2022-08-31T18:12:34.795Z,101379.50
2022-08-31T18:15:01.609Z,101377.94
2022-08-31T18:17:28.203Z,101387.41
2022-08-31T18:19:55.540Z,101389.50
2022-08-31T18:22:22.164Z,101381.88
2022-08-31T18:24:48.794Z,101388.06
2022-08-31T18:27:15.711Z,101389.38
2022-08-31T18:29:44.331Z,101395.56
2022-08-31T18:32:11.793Z,101396.06
2022-08-31T18:34:44.746Z,101402.25
2022-08-31T18:37:13.042Z,101405.13
2022-08-31T18:39:59.993Z,101407.19
2022-08-31T18:42:47.196Z,101409.28
2022-08-31T18:45:18.496Z,101410.22
2022-08-31T18:48:13.541Z,101408.69
2022-08-31T18:50:38.769Z,101421.34
2022-08-31T18:53:10.937Z,101421.03
2022-08-31T18:55:42.524Z,101424.34
2022-08-31T18:58:09.148Z,101424.84
2022-08-31T19:00:35.849Z,101435.44
2022-08-31T19:03:02.656Z,101430.66
2022-08-31T19:05:31.836Z,101427.06
2022-08-31T19:08:00.481Z,101434.03
2022-08-31T19:10:27.450Z,101429.56
2022-08-31T19:12:55.916Z,101432.06
2022-08-31T19:15:25.521Z,101436.97
2022-08-31T19:18:02.206Z,101431.28
2022-08-31T19:20:29.382Z,101441.50
2022-08-31T19:22:56.256Z,101442.78
2022-08-31T19:25:23.371Z,101440.41
2022-08-31T19:27:51.307Z,101446.56
2022-08-31T19:30:25.814Z,101441.31
2022-08-31T19:32:56.216Z,101442.53
2022-08-31T19:35:25.904Z,101440.53
2022-08-31T19:37:53.757Z,101440.16
2022-08-31T19:40:20.857Z,101434.50
2022-08-31T19:43:43.611Z,101443.44
2022-08-31T19:45:43.648Z,101446.72
2022-08-31T19:48:12.553Z,101440.66
2022-08-31T19:50:42.342Z,101443.91
2022-08-31T19:53:13.447Z,101435.81
2022-08-31T19:55:51.769Z,101450.47
2022-08-31T19:58:27.515Z,101453.69
2022-08-31T20:01:00.698Z,101447.63
2022-08-31T20:03:28.363Z,101459.44
2022-08-31T20:05:57.014Z,101451.72
2022-08-31T20:08:23.571Z,101453.38
2022-08-31T20:10:50.456Z,101445.66
2022-08-31T20:13:21.530Z,101459.47
2022-08-31T20:15:48.327Z,101452.59
2022-08-31T20:18:15.036Z,101450.59
2022-08-31T20:20:48.325Z,101456.72
2022-08-31T20:23:18.133Z,101450.25
2022-08-31T20:25:46.440Z,101445.81
2022-08-31T20:28:13.619Z,101449.91
2022-08-31T20:30:42.187Z,101458.09
2022-08-31T20:33:11.598Z,101451.22
2022-08-31T20:35:44.995Z,101452.88
2022-08-31T20:38:14.334Z,101459.34
2022-08-31T20:40:43.422Z,101462.25
2022-08-31T20:43:12.749Z,101456.22
2022-08-31T20:45:41.202Z,101458.69
2022-08-31T20:48:27.781Z,101465.59
2022-08-31T20:50:55.830Z,101461.13
2022-08-31T20:53:26.369Z,101466.41
2022-08-31T20:56:10.391Z,101468.88
2022-08-31T20:58:43.306Z,101465.22
2022-08-31T21:01:10.861Z,101468.50
2022-08-31T21:03:37.752Z,101460.78
2022-08-31T21:06:11.255Z,101463.63
2022-08-31T21:08:41.423Z,101460.84
2022-08-31T21:11:11.495Z,101461.22
2022-08-31T21:13:38.016Z,101462.06
2022-08-31T21:16:04.699Z,101464.50
2022-08-31T21:18:34.557Z,101460.47
2022-08-31T21:21:06.603Z,101463.75
2022-08-31T21:23:33.134Z,101466.16
2022-08-31T21:25:59.738Z,101464.97
2022-08-31T21:28:29.598Z,101462.13
2022-08-31T21:31:15.507Z,101466.63
2022-08-31T21:33:45.598Z,101467.44
2022-08-31T21:36:15.215Z,101465.84
2022-08-31T21:38:42.919Z,101462.59
2022-08-31T21:41:11.132Z,101462.59
2022-08-31T21:43:37.944Z,101464.22
2022-08-31T21:46:10.943Z,101470.31
2022-08-31T21:48:40.031Z,101468.28
2022-08-31T21:51:34.308Z,101473.16
2022-08-31T21:54:05.486Z,101473.16
2022-08-31T21:56:36.316Z,101465.47
2022-08-31T21:59:04.387Z,101467.91
2022-08-31T22:01:33.890Z,101469.13
2022-08-31T22:04:01.263Z,101465.47
2022-08-31T22:06:31.135Z,101461.03
2022-08-31T22:09:01.964Z,101469.53
2022-08-31T22:11:34.561Z,101469.16
2022-08-31T22:14:01.770Z,101469.97
2022-08-31T22:16:28.346Z,101473.63
2022-08-31T22:19:01.147Z,101474.03
2022-08-31T22:21:34.603Z,101467.53
2022-08-31T22:24:05.445Z,101465.13
2022-08-31T22:26:35.494Z,101462.28
2022-08-31T22:29:02.291Z,101466.75
2022-08-31T22:31:28.947Z,101457.44
2022-08-31T22:33:55.583Z,101463.06
2022-08-31T22:36:32.622Z,101464.69
2022-08-31T22:39:19.803Z,101462.25
2022-08-31T22:41:47.288Z,101465.91
2022-08-31T22:44:19.088Z,101466.31
2022-08-31T22:46:46.481Z,101469.53
2022-08-31T22:49:14.481Z,101465.09
2022-08-31T22:51:42.301Z,101467.13
2022-08-31T22:54:10.331Z,101464.66
2022-08-31T22:56:38.570Z,101458.19
2022-08-31T22:59:08.845Z,101454.53
2022-08-31T23:01:41.939Z,101461.84
2022-08-31T23:04:12.016Z,101448.88
2022-08-31T23:06:39.692Z,101458.56
2022-08-31T23:09:09.016Z,101455.75
2022-08-31T23:11:36.469Z,101453.31
2022-08-31T23:14:07.468Z,101457.78
2022-08-31T23:16:40.399Z,101452.09
2022-08-31T23:19:16.554Z,101448.44
2022-08-31T23:21:52.852Z,101443.59
2022-08-31T23:24:46.295Z,101448.44
2022-08-31T23:27:15.399Z,101445.59
2022-08-31T23:29:47.003Z,101454.09
2022-08-31T23:32:18.034Z,101448.03
2022-08-31T23:34:46.439Z,101455.69
2022-08-31T23:37:14.144Z,101445.16
2022-08-31T23:39:45.866Z,101439.47
2022-08-31T23:42:15.266Z,101439.84
2022-08-31T23:44:43.999Z,101436.19
2022-08-31T23:47:16.946Z,101445.91
2022-08-31T23:49:45.826Z,101443.06
2022-08-31T23:52:18.658Z,101442.63
2022-08-31T23:54:46.071Z,101443.81
2022-08-31T23:57:32.054Z,101444.59
